createdAt,value
2023-05-19T00:01:29.694Z,100688.78
2023-05-19T00:06:33.528Z,100687.13
2023-05-19T00:11:39.556Z,100697.25
2023-05-19T00:16:43.182Z,100686.94
2023-05-19T00:21:46.007Z,100685.44
2023-05-19T00:26:49.204Z,100681.59
2023-05-19T00:31:52.391Z,100681.13
2023-05-19T00:36:55.592Z,100683.09
2023-05-19T00:41:58.767Z,100681.63
2023-05-19T00:47:02.581Z,100679.97
2023-05-19T00:52:07.233Z,100681.97
2023-05-19T00:57:10.101Z,100667.63
2023-05-19T01:02:13.492Z,100665.97
2023-05-19T01:07:16.798Z,100677.47
2023-05-19T01:12:19.882Z,100679.28
2023-05-19T01:17:35.170Z,100666.13
2023-05-19T01:23:15.295Z,100671.31
2023-05-19T01:28:58.845Z,100668.66
2023-05-19T01:34:04.744Z,100668.66
2023-05-19T01:39:08.136Z,100678.44
2023-05-19T01:44:11.760Z,100668.66
2023-05-19T01:49:14.887Z,100674.28
2023-05-19T01:54:17.971Z,100669.13
2023-05-19T01:59:50.935Z,100656.97
2023-05-19T02:05:05.854Z,100654.97
2023-05-19T02:10:19.384Z,100657.28
2023-05-19T02:15:28.679Z,100662.31
2023-05-19T02:20:32.350Z,100661.63
2023-05-19T02:25:35.639Z,100661.97
2023-05-19T02:30:38.772Z,100663.25
2023-05-19T02:35:41.700Z,100652.25
2023-05-19T02:40:44.701Z,100648.94
2023-05-19T02:45:47.769Z,100657.22
2023-05-19T02:50:50.777Z,100653.59
2023-05-19T02:55:53.862Z,100655.25
2023-05-19T03:00:56.892Z,100661.25
2023-05-19T03:05:59.866Z,100663.91
2023-05-19T03:11:03.725Z,100675.22
2023-05-19T03:16:08.454Z,100675.91
2023-05-19T03:21:11.566Z,100668.56
2023-05-19T03:26:14.696Z,100675.56
2023-05-19T03:31:17.856Z,100677.69
2023-05-19T03:36:22.170Z,100671.19
2023-05-19T03:41:25.506Z,100659.22
2023-05-19T03:46:28.601Z,100671.69
2023-05-19T03:51:31.725Z,100667.22
2023-05-19T03:56:34.754Z,100658.72
2023-05-19T04:01:38.320Z,100655.56
2023-05-19T04:06:41.559Z,100668.22
2023-05-19T04:11:44.668Z,100672.44
2023-05-19T04:16:47.751Z,100682.13
2023-05-19T04:21:50.984Z,100672.59
2023-05-19T04:26:53.932Z,100688.75
2023-05-19T04:32:01.022Z,100689.09
2023-05-19T04:37:04.556Z,100695.28
2023-05-19T04:42:09.073Z,100701.25
2023-05-19T04:47:13.506Z,100701.09
2023-05-19T04:52:21.819Z,100706.91
2023-05-19T04:57:24.940Z,100713.91
2023-05-19T05:02:28.215Z,100716.72
2023-05-19T05:07:32.477Z,100706.50
2023-05-19T05:12:36.204Z,100706.63
2023-05-19T05:17:39.664Z,100712.63
2023-05-19T05:22:43.297Z,100717.13
2023-05-19T05:27:46.330Z,100722.94
2023-05-19T05:32:49.406Z,100728.25
2023-05-19T05:37:52.525Z,100724.38
2023-05-19T05:42:56.830Z,100726.50
2023-05-19T05:48:00.326Z,100732.28
2023-05-19T05:53:05.363Z,100724.88
2023-05-19T05:58:11.150Z,100724.81
2023-05-19T06:03:14.886Z,100718.25
2023-05-19T06:08:18.155Z,100721.00
2023-05-19T06:13:24.079Z,100721.44
2023-05-19T06:18:27.319Z,100729.84
2023-05-19T06:23:31.353Z,100729.41
2023-05-19T06:28:34.783Z,100732.81
2023-05-19T06:33:37.852Z,100744.00
2023-05-19T06:38:41.054Z,100752.16
2023-05-19T06:43:44.195Z,100744.59
2023-05-19T06:48:47.244Z,100741.91
2023-05-19T06:53:50.373Z,100742.09
2023-05-19T06:58:53.427Z,100746.25
2023-05-19T07:03:56.511Z,100743.88
2023-05-19T07:08:59.889Z,100747.16
2023-05-19T07:14:03.479Z,100748.88
2023-05-19T07:19:06.309Z,100755.28
2023-05-19T07:24:09.302Z,100745.94
2023-05-19T07:29:12.364Z,100748.56
2023-05-19T07:34:15.359Z,100749.00
2023-05-19T07:39:19.341Z,100745.09
2023-05-19T07:44:22.690Z,100742.13
2023-05-19T07:49:25.796Z,100745.91
2023-05-19T07:54:28.807Z,100736.47
2023-05-19T07:59:32.099Z,100737.00
2023-05-19T08:04:36.051Z,100737.44
2023-05-19T08:09:39.753Z,100734.00
2023-05-19T08:14:42.741Z,100723.25
2023-05-19T08:19:45.952Z,100717.94
2023-05-19T08:24:49.896Z,100706.75
2023-05-19T08:29:52.886Z,100713.72
2023-05-19T08:34:56.140Z,100712.78
2023-05-19T08:39:59.230Z,100714.09
2023-05-19T08:45:02.841Z,100714.59
2023-05-19T08:50:09.946Z,100716.09
2023-05-19T08:55:34.036Z,100716.16
2023-05-19T09:00:37.663Z,100715.38
2023-05-19T09:05:41.494Z,100710.00
2023-05-19T09:10:44.870Z,100707.47
2023-05-19T09:15:50.497Z,100716.78
2023-05-19T09:21:02.620Z,100717.16
2023-05-19T09:26:08.051Z,100714.41
2023-05-19T09:31:11.766Z,100719.53
2023-05-19T09:36:14.824Z,100708.56
2023-05-19T09:41:18.091Z,100710.44
2023-05-19T09:46:28.664Z,100701.00
2023-05-19T09:51:32.223Z,100708.88
2023-05-19T09:56:35.270Z,100703.53
2023-05-19T10:01:41.230Z,100700.22
2023-05-19T10:06:46.213Z,100696.47
2023-05-19T10:11:57.970Z,100696.50
2023-05-19T10:17:00.865Z,100690.75
2023-05-19T10:22:03.876Z,100679.38
2023-05-19T10:27:14.316Z,100672.97
2023-05-19T10:32:31.142Z,100662.19
2023-05-19T10:37:58.951Z,100657.97
2023-05-19T10:43:38.815Z,100653.91
2023-05-19T10:48:46.416Z,100651.75
2023-05-19T10:53:50.316Z,100648.13
2023-05-19T10:58:53.379Z,100647.22
2023-05-19T11:03:59.512Z,100643.69
2023-05-19T11:09:41.043Z,100642.78
2023-05-19T11:14:44.458Z,100640.88
2023-05-19T11:19:56.414Z,100636.44
2023-05-19T11:24:59.315Z,100623.94
2023-05-19T11:30:14.901Z,100620.94
2023-05-19T11:35:21.135Z,100632.00
2023-05-19T11:40:24.094Z,100627.69
2023-05-19T11:45:27.914Z,100631.34
2023-05-19T11:50:32.692Z,100626.84
2023-05-19T11:55:36.877Z,100625.63
2023-05-19T12:00:43.281Z,100619.47
2023-05-19T12:05:49.224Z,100627.81
2023-05-19T12:10:53.261Z,100617.50
2023-05-19T12:16:01.788Z,100616.13
2023-05-19T12:21:05.953Z,100613.66
2023-05-19T12:26:10.001Z,100615.59
2023-05-19T12:31:13.191Z,100603.28
2023-05-19T12:36:16.459Z,100594.47
2023-05-19T12:41:19.703Z,100580.75
2023-05-19T12:46:22.935Z,100577.53
2023-05-19T12:51:26.184Z,100576.78
2023-05-19T12:56:29.353Z,100578.84
2023-05-19T13:01:32.469Z,100564.13
2023-05-19T13:06:35.320Z,100556.19
2023-05-19T13:11:38.708Z,100563.50
2023-05-19T13:16:41.452Z,100556.19
2023-05-19T13:21:47.329Z,100557.38
2023-05-19T13:26:50.535Z,100547.81
2023-05-19T13:31:53.546Z,100544.19
2023-05-19T13:36:56.802Z,100538.00
2023-05-19T13:42:00.106Z,100534.78
2023-05-19T13:47:03.405Z,100520.31
2023-05-19T13:52:07.181Z,100533.94
2023-05-19T13:57:10.269Z,100526.22
2023-05-19T14:02:13.092Z,100517.66
2023-05-19T14:07:16.796Z,100520.19
2023-05-19T14:12:23.236Z,100523.78
2023-05-19T14:17:28.627Z,100519.38
2023-05-19T14:22:31.543Z,100511.56
2023-05-19T14:27:34.333Z,100515.09
2023-05-19T14:32:37.409Z,100512.28
2023-05-19T14:37:40.326Z,100512.44
2023-05-19T14:42:43.282Z,100497.47
2023-05-19T14:47:47.747Z,100504.28
2023-05-19T14:52:50.861Z,100499.75
2023-05-19T14:57:53.857Z,100496.81
2023-05-19T15:02:56.884Z,100489.00
2023-05-19T15:07:59.720Z,100499.13
2023-05-19T15:13:04.418Z,100491.00
2023-05-19T15:18:07.304Z,100485.94
2023-05-19T15:23:10.147Z,100485.34
2023-05-19T15:28:13.275Z,100489.34
2023-05-19T15:33:16.438Z,100488.81
2023-05-19T15:38:20.495Z,100486.38
2023-05-19T15:43:23.625Z,100486.06
2023-05-19T15:48:28.942Z,100493.94
2023-05-19T15:53:33.426Z,100488.84
2023-05-19T15:58:36.311Z,100482.22
2023-05-19T16:03:41.876Z,100472.44
2023-05-19T16:08:44.807Z,100481.16
2023-05-19T16:13:48.385Z,100487.38
2023-05-19T16:18:51.472Z,100499.47
2023-05-19T16:23:54.333Z,100494.56
2023-05-19T16:28:57.203Z,100500.56
2023-05-19T16:34:00.020Z,100501.56
2023-05-19T16:39:03.024Z,100496.47
2023-05-19T16:44:06.034Z,100494.41
2023-05-19T16:49:09.141Z,100499.41
2023-05-19T16:54:12.120Z,100490.06
2023-05-19T16:59:14.970Z,100486.97
2023-05-19T17:04:18.022Z,100494.63
2023-05-19T17:09:25.350Z,100500.00
2023-05-19T17:14:28.262Z,100485.28
2023-05-19T17:19:31.631Z,100496.22
2023-05-19T17:24:34.725Z,100491.03
2023-05-19T17:29:37.833Z,100504.41
2023-05-19T17:34:41.889Z,100505.16
2023-05-19T17:39:44.828Z,100512.72
2023-05-19T17:44:47.986Z,100514.91
2023-05-19T17:49:53.100Z,100521.44
2023-05-19T17:54:56.559Z,100520.28
2023-05-19T18:00:00.851Z,100528.44
2023-05-19T18:05:06.186Z,100527.66
2023-05-19T18:10:10.122Z,100531.03
2023-05-19T18:15:14.933Z,100539.75
2023-05-19T18:20:18.256Z,100540.38
2023-05-19T18:25:22.168Z,100540.31
2023-05-19T18:30:25.054Z,100545.47
2023-05-19T18:35:28.129Z,100544.63
2023-05-19T18:40:31.398Z,100552.41
2023-05-19T18:45:37.105Z,100556.28
2023-05-19T18:50:40.985Z,100554.78
2023-05-19T18:55:44.487Z,100557.94
2023-05-19T19:00:47.563Z,100573.38
2023-05-19T19:05:58.433Z,100569.56
2023-05-19T19:11:01.507Z,100576.31
2023-05-19T19:16:04.947Z,100570.03
2023-05-19T19:21:07.784Z,100567.03
2023-05-19T19:26:10.963Z,100570.69
2023-05-19T19:31:14.426Z,100580.91
2023-05-19T19:36:17.730Z,100580.41
2023-05-19T19:41:21.529Z,100589.41
2023-05-19T19:46:24.516Z,100583.94
2023-05-19T19:51:28.443Z,100594.66
2023-05-19T19:56:31.281Z,100596.06
2023-05-19T20:01:34.140Z,100613.16
2023-05-19T20:06:38.426Z,100611.41
2023-05-19T20:11:41.592Z,100604.03
2023-05-19T20:16:46.720Z,100599.00
2023-05-19T20:21:49.694Z,100605.59
2023-05-19T20:26:52.715Z,100609.50
2023-05-19T20:31:57.136Z,100606.25
2023-05-19T20:37:00.149Z,100611.63
2023-05-19T20:42:03.404Z,100607.66
2023-05-19T20:47:08.215Z,100617.16
2023-05-19T20:52:11.409Z,100610.69
2023-05-19T20:57:14.838Z,100600.56
2023-05-19T21:02:17.589Z,100588.94
2023-05-19T21:07:21.459Z,100589.53
2023-05-19T21:12:25.367Z,100594.59
2023-05-19T21:17:28.304Z,100599.28
2023-05-19T21:22:31.606Z,100606.69
2023-05-19T21:27:36.316Z,100614.28
2023-05-19T21:32:39.290Z,100611.50
2023-05-19T21:37:50.052Z,100596.03
2023-05-19T21:42:53.177Z,100599.59
2023-05-19T21:47:56.009Z,100592.31
2023-05-19T21:52:59.290Z,100594.56
2023-05-19T21:58:02.731Z,100602.50
2023-05-19T22:03:06.717Z,100609.22
2023-05-19T22:08:09.776Z,100604.25
2023-05-19T22:13:12.751Z,100606.38
2023-05-19T22:18:16.795Z,100594.97
2023-05-19T22:23:19.572Z,100583.06
2023-05-19T22:28:22.619Z,100584.16
2023-05-19T22:33:25.608Z,100578.41
2023-05-19T22:38:28.409Z,100569.94
2023-05-19T22:43:31.361Z,100558.78
2023-05-19T22:48:34.355Z,100557.94
2023-05-19T22:53:38.060Z,100559.34
2023-05-19T22:58:40.951Z,100561.53
2023-05-19T23:03:44.438Z,100554.72
2023-05-19T23:08:47.578Z,100546.41
2023-05-19T23:13:50.511Z,100543.97
2023-05-19T23:18:53.891Z,100539.16
2023-05-19T23:23:57.151Z,100543.38
2023-05-19T23:29:00.174Z,100542.94
2023-05-19T23:34:03.551Z,100539.59
2023-05-19T23:39:06.597Z,100538.94
2023-05-19T23:44:09.649Z,100547.31
2023-05-19T23:49:12.691Z,100540.84
2023-05-19T23:54:15.517Z,100534.03
2023-05-19T23:59:18.335Z,100531.88
